Time;durP1;ratioP1;P1;durP2;ratioP2;P2;SDS_P1;SDS_P2;PMS_P1;PMS_P2;Temp;Humidity;BMP_temperature;BMP_pressure;BME280_temperature;BME280_humidity;BME280_pressure;Samples;Min_cycle;Max_cycle;Signal;HPM_P1;HPM_P2
2023/08/05 00:00:09;;;;;;;8.02;5.72;;;;;;;13.95;100.00;101624.69;5030402;28;20036;-80
2023/08/05 00:02:35;;;;;;;9.18;5.88;;;;;;;13.94;100.00;101615.91;5029270;28;20057;-80
2023/08/05 00:05:00;;;;;;;6.90;5.53;;;;;;;13.97;100.00;101617.47;5012520;28;20057;-80
2023/08/05 00:07:25;;;;;;;8.70;5.82;;;;;;;14.00;100.00;101617.22;5043345;28;20063;-80
2023/08/05 00:09:51;;;;;;;6.70;5.55;;;;;;;13.99;100.00;101607.63;5046516;28;20020;-80
2023/08/05 00:12:16;;;;;;;7.40;5.95;;;;;;;13.98;100.00;101598.00;5047980;28;20029;-80
2023/08/05 00:14:44;;;;;;;6.57;5.82;;;;;;;14.01;100.00;101597.78;5047652;28;20027;-80
2023/08/05 00:17:09;;;;;;;8.45;6.00;;;;;;;14.01;100.00;101601.28;5047227;28;20025;-80
2023/08/05 00:19:35;;;;;;;11.15;6.38;;;;;;;14.03;100.00;101606.44;5035045;28;20072;-80
2023/08/05 00:22:00;;;;;;;6.93;5.90;;;;;;;14.07;100.00;101586.72;5026831;28;20910;-80
2023/08/05 00:24:25;;;;;;;10.50;6.43;;;;;;;14.05;100.00;101591.28;5043761;28;20029;-80
2023/08/05 00:26:51;;;;;;;9.20;5.93;;;;;;;14.05;100.00;101593.94;5032589;28;20148;-80
2023/08/05 00:29:16;;;;;;;9.85;5.82;;;;;;;14.06;100.00;101588.53;5034494;28;20083;-80
2023/08/05 00:31:41;;;;;;;12.50;6.80;;;;;;;14.07;100.00;101586.72;5043990;28;20032;-80
2023/08/05 00:34:10;;;;;;;7.40;5.85;;;;;;;14.05;100.00;101592.13;5028261;28;20103;-80
2023/08/05 00:36:35;;;;;;;6.82;5.97;;;;;;;14.06;100.00;101580.59;5036642;28;20078;-80
2023/08/05 00:39:01;;;;;;;9.27;6.47;;;;;;;14.05;100.00;101586.84;5033718;28;20312;-80
2023/08/05 00:41:26;;;;;;;8.98;6.40;;;;;;;14.07;100.00;101589.38;5045613;28;20029;-80
2023/08/05 00:43:51;;;;;;;8.35;6.40;;;;;;;14.07;100.00;101584.06;5041962;28;20029;-80
2023/08/05 00:46:18;;;;;;;11.48;6.80;;;;;;;14.02;100.00;101580.94;5048634;28;20116;-80
2023/08/05 00:48:43;;;;;;;9.68;6.47;;;;;;;14.05;100.00;101583.34;5046692;28;20535;-80
2023/08/05 00:51:10;;;;;;;8.73;6.97;;;;;;;14.05;100.00;101580.72;5047469;28;20016;-80
2023/08/05 00:53:36;;;;;;;7.40;6.70;;;;;;;14.05;100.00;101570.13;5038709;28;20074;-80
2023/08/05 00:56:02;;;;;;;8.93;6.43;;;;;;;14.06;100.00;101569.16;5026429;28;20428;-80
2023/08/05 00:58:28;;;;;;;9.38;6.60;;;;;;;14.05;100.00;101564.84;5037938;28;20025;-80
2023/08/05 01:00:54;;;;;;;8.32;6.32;;;;;;;14.04;100.00;101563.16;5045356;28;20021;-80
2023/08/05 01:03:19;;;;;;;9.23;6.10;;;;;;;14.03;100.00;101564.13;5035254;28;20029;-80
2023/08/05 01:05:48;;;;;;;8.63;6.60;;;;;;;13.96;100.00;101565.50;5029147;28;20029;-81
2023/08/05 01:08:14;;;;;;;7.68;6.25;;;;;;;13.99;100.00;101567.94;5046151;28;20074;-80
2023/08/05 01:10:39;;;;;;;8.57;6.30;;;;;;;13.93;100.00;101563.94;5028559;28;20458;-81
2023/08/05 01:13:04;;;;;;;9.35;6.85;;;;;;;13.94;100.00;101564.78;5029583;28;20021;-80
2023/08/05 01:15:30;;;;;;;10.45;7.45;;;;;;;13.95;100.00;101550.59;5028278;28;20017;-80
2023/08/05 01:17:57;;;;;;;12.60;7.28;;;;;;;13.92;100.00;101550.84;5036846;28;20029;-80
2023/08/05 01:20:30;;;;;;;7.55;6.78;;;;;;;13.96;100.00;101554.94;5045049;28;20021;-80
2023/08/05 01:23:06;;;;;;;19.15;7.50;;;;;;;13.91;100.00;101547.34;5026312;28;20112;-80
2023/08/05 01:25:34;;;;;;;10.73;7.60;;;;;;;13.89;100.00;101548.44;5031224;28;20025;-81
2023/08/05 01:28:01;;;;;;;9.00;7.70;;;;;;;13.90;100.00;101542.19;5021832;28;20728;-80
2023/08/05 01:30:29;;;;;;;8.45;7.07;;;;;;;13.92;100.00;101556.97;5038910;28;20068;-80
2023/08/05 01:32:57;;;;;;;9.38;7.43;;;;;;;13.91;100.00;101550.00;5041769;28;20436;-80
2023/08/05 01:35:23;;;;;;;11.18;7.70;;;;;;;13.86;100.00;101549.50;5045850;28;20025;-80
2023/08/05 01:37:49;;;;;;;9.77;7.65;;;;;;;13.86;100.00;101546.88;5012408;28;20026;-80
2023/08/05 01:40:15;;;;;;;9.85;7.57;;;;;;;13.78;100.00;101547.47;5030808;28;20112;-81
2023/08/05 01:42:40;;;;;;;9.40;7.72;;;;;;;13.80;100.00;101542.88;5044519;28;20033;-80
2023/08/05 01:45:06;;;;;;;13.10;7.72;;;;;;;13.79;100.00;101541.22;5048189;28;20058;-81
2023/08/05 01:47:31;;;;;;;14.15;8.57;;;;;;;13.75;100.00;101547.69;5048280;28;20559;-80
2023/08/05 01:49:57;;;;;;;10.25;8.02;;;;;;;13.70;100.00;101549.84;5051293;28;20056;-80
2023/08/05 01:52:22;;;;;;;9.13;7.32;;;;;;;13.73;100.00;101551.41;5051885;28;20032;-80
2023/08/05 01:54:48;;;;;;;9.32;7.40;;;;;;;13.69;100.00;101549.97;5051567;28;20028;-80
2023/08/05 01:57:13;;;;;;;8.50;7.68;;;;;;;13.69;100.00;101556.09;5033002;28;20094;-80
2023/08/05 01:59:38;;;;;;;10.73;7.85;;;;;;;13.72;100.00;101550.56;5028313;28;20033;-81
2023/08/05 02:02:04;;;;;;;9.23;7.75;;;;;;;13.69;100.00;101545.53;5042919;28;20029;-80
2023/08/05 02:04:30;;;;;;;9.48;8.10;;;;;;;13.65;100.00;101549.34;5030341;28;20436;-81
2023/08/05 02:06:55;;;;;;;12.73;8.38;;;;;;;13.66;100.00;101545.75;5031760;28;20032;-81
2023/08/05 02:09:20;;;;;;;11.50;8.32;;;;;;;13.64;100.00;101552.97;5032705;28;20036;-81
2023/08/05 02:11:46;;;;;;;13.52;8.60;;;;;;;13.61;100.00;101547.03;5035688;28;20044;-80
2023/08/05 02:14:12;;;;;;;13.20;8.30;;;;;;;13.59;100.00;101556.88;5051838;28;20029;-80
2023/08/05 02:16:40;;;;;;;10.63;8.85;;;;;;;13.58;100.00;101553.41;5017785;28;20033;-80
2023/08/05 02:19:05;;;;;;;9.70;8.68;;;;;;;13.52;100.00;101542.44;5028909;28;20034;-80
2023/08/05 02:21:30;;;;;;;11.75;8.88;;;;;;;13.47;100.00;101540.16;5044848;28;20487;-79
2023/08/05 02:23:56;;;;;;;11.48;9.00;;;;;;;13.43;100.00;101541.34;5018303;28;20025;-79
2023/08/05 02:26:21;;;;;;;16.60;9.65;;;;;;;13.39;100.00;101540.72;5048325;28;20029;-80
2023/08/05 02:28:47;;;;;;;10.07;9.07;;;;;;;13.40;100.00;101538.94;5028680;28;20030;-80
2023/08/05 02:31:14;;;;;;;13.52;9.88;;;;;;;13.36;100.00;101542.75;5032847;28;20029;-80
2023/08/05 02:33:39;;;;;;;12.10;9.80;;;;;;;13.37;100.00;101537.34;5037292;28;20028;-80
2023/08/05 02:36:04;;;;;;;13.40;9.98;;;;;;;13.33;100.00;101529.78;5041144;28;20028;-80
2023/08/05 02:38:30;;;;;;;14.75;10.05;;;;;;;13.33;100.00;101522.69;5030508;28;20053;-80
2023/08/05 02:40:57;;;;;;;10.00;8.98;;;;;;;13.31;100.00;101523.75;5036031;28;20029;-80
2023/08/05 02:43:22;;;;;;;12.65;9.68;;;;;;;13.27;100.00;101524.94;5037538;28;20060;-80
2023/08/05 02:45:55;;;;;;;10.98;9.63;;;;;;;13.30;100.00;101522.91;5043608;28;20473;-80
2023/08/05 02:48:22;;;;;;;11.27;10.13;;;;;;;13.21;100.00;101517.44;5032272;28;20021;-80
2023/08/05 02:50:47;;;;;;;13.55;10.32;;;;;;;13.20;100.00;101521.06;5040509;28;20031;-80
2023/08/05 02:53:13;;;;;;;12.48;10.77;;;;;;;13.18;100.00;101516.72;5048841;28;20033;-80
2023/08/05 02:55:38;;;;;;;10.75;9.65;;;;;;;13.18;100.00;101521.16;5033494;28;20029;-80
2023/08/05 02:58:04;;;;;;;12.38;10.30;;;;;;;13.14;100.00;101523.16;5046702;28;20025;-80
2023/08/05 03:00:29;;;;;;;10.60;9.52;;;;;;;13.15;100.00;101514.28;5040306;28;20021;-80
2023/08/05 03:02:54;;;;;;;11.52;9.77;;;;;;;13.15;100.00;101516.91;5048754;28;20032;-80
2023/08/05 03:05:20;;;;;;;13.10;10.65;;;;;;;13.12;100.00;101514.50;5043917;28;20029;-80
2023/08/05 03:07:45;;;;;;;11.68;10.23;;;;;;;13.10;100.00;101515.56;5023811;28;20428;-80
2023/08/05 03:10:10;;;;;;;13.48;10.63;;;;;;;13.15;100.00;101501.06;5030540;28;20116;-80
2023/08/05 03:12:36;;;;;;;11.88;10.57;;;;;;;13.12;100.00;101493.38;5038009;28;20024;-80
2023/08/05 03:15:02;;;;;;;11.95;10.27;;;;;;;13.12;100.00;101493.38;5047388;28;20044;-80
2023/08/05 03:17:27;;;;;;;11.88;9.90;;;;;;;13.15;100.00;101487.84;5048323;28;20050;-80
2023/08/05 03:19:52;;;;;;;11.57;10.23;;;;;;;13.12;100.00;101493.38;5034575;28;20025;-80
2023/08/05 03:22:18;;;;;;;14.45;10.27;;;;;;;13.13;100.00;101487.13;5045367;28;20017;-80
2023/08/05 03:24:43;;;;;;;12.02;9.93;;;;;;;13.11;100.00;101483.75;5028172;28;20026;-80
2023/08/05 03:27:12;;;;;;;11.05;9.98;;;;;;;13.06;100.00;101483.25;5033684;28;20063;-80
2023/08/05 03:29:37;;;;;;;16.83;11.13;;;;;;;13.06;100.00;101482.41;5047745;28;20051;-80
2023/08/05 03:32:03;;;;;;;11.98;10.27;;;;;;;13.09;100.00;101488.31;5040985;28;20469;-80
2023/08/05 03:34:29;;;;;;;15.63;10.90;;;;;;;13.03;100.00;101483.50;5045308;28;20037;-80
2023/08/05 03:36:55;;;;;;;11.90;10.80;;;;;;;13.07;100.00;101484.09;5042071;28;20018;-80
2023/08/05 03:39:20;;;;;;;12.27;10.32;;;;;;;13.09;100.00;101475.09;5045098;28;20634;-80
2023/08/05 03:41:46;;;;;;;13.43;10.93;;;;;;;13.07;100.00;101473.53;5025773;28;20065;-81
2023/08/05 03:44:11;;;;;;;11.25;10.10;;;;;;;13.11;100.00;101465.25;5034492;28;20033;-80
2023/08/05 03:46:37;;;;;;;12.07;10.80;;;;;;;13.05;100.00;101456.94;5049607;28;20636;-81
2023/08/05 03:49:06;;;;;;;12.50;10.48;;;;;;;13.05;100.00;101459.59;5043569;28;20043;-81
2023/08/05 03:51:31;;;;;;;12.68;11.32;;;;;;;13.00;100.00;101457.31;5046663;28;20032;-81
2023/08/05 03:53:57;;;;;;;12.05;10.77;;;;;;;13.05;100.00;101457.78;5042167;28;20460;-80
2023/08/05 03:56:26;;;;;;;11.73;10.50;;;;;;;12.99;100.00;101450.34;5031857;28;20025;-80
2023/08/05 03:58:53;;;;;;;11.82;10.60;;;;;;;13.05;100.00;101457.78;5010854;28;20450;-81
2023/08/05 04:01:19;;;;;;;13.50;11.45;;;;;;;12.97;100.00;101444.31;5037854;28;20098;-81
2023/08/05 04:03:45;;;;;;;12.35;11.10;;;;;;;13.03;100.00;101443.88;5036934;28;20025;-80
2023/08/05 04:06:11;;;;;;;14.35;11.77;;;;;;;12.96;100.00;101445.28;5030776;28;20095;-80
2023/08/05 04:08:40;;;;;;;11.95;10.68;;;;;;;13.01;100.00;101443.13;5031148;28;20029;-80
2023/08/05 04:11:05;;;;;;;16.38;12.13;;;;;;;12.97;100.00;101446.97;5029904;28;20025;-80
2023/08/05 04:13:33;;;;;;;14.13;11.80;;;;;;;12.89;100.00;101444.06;5037931;28;20032;-80
2023/08/05 04:16:03;;;;;;;15.88;11.52;;;;;;;13.00;100.00;101436.16;5038572;28;20030;-80
2023/08/05 04:18:29;;;;;;;14.20;11.60;;;;;;;13.01;100.00;101452.88;5026876;28;20033;-80
2023/08/05 04:20:56;;;;;;;13.35;11.77;;;;;;;12.93;100.00;101450.78;5044275;28;20025;-80
2023/08/05 04:23:23;;;;;;;13.35;11.95;;;;;;;12.88;100.00;101434.44;5050426;28;20031;-80
2023/08/05 04:25:49;;;;;;;14.45;12.30;;;;;;;12.88;100.00;101415.97;5048578;28;20028;-80
2023/08/05 04:28:14;;;;;;;19.23;11.75;;;;;;;12.93;100.00;101411.19;5036450;28;20484;-80
2023/08/05 04:30:40;;;;;;;13.00;11.75;;;;;;;12.88;100.00;101410.69;5029206;28;20503;-80
2023/08/05 04:33:06;;;;;;;13.15;11.70;;;;;;;12.93;100.00;101403.25;5028885;28;20029;-80
2023/08/05 04:35:32;;;;;;;18.45;12.55;;;;;;;13.00;100.00;101403.63;5018387;28;20037;-81
2023/08/05 04:37:57;;;;;;;15.63;12.50;;;;;;;12.94;100.00;101404.09;5028575;28;20045;-80
2023/08/05 04:40:22;;;;;;;13.55;12.13;;;;;;;13.01;100.00;101400.88;5027997;28;20072;-81
2023/08/05 04:42:48;;;;;;;15.68;11.63;;;;;;;12.99;100.00;101396.66;5027545;28;20025;-81
2023/08/05 04:45:14;;;;;;;12.60;11.40;;;;;;;13.01;100.00;101385.03;5041611;28;20516;-81
2023/08/05 04:47:41;;;;;;;13.57;12.05;;;;;;;12.94;100.00;101386.44;5037849;28;20493;-81
2023/08/05 04:50:06;;;;;;;17.17;11.93;;;;;;;13.02;100.00;101388.50;5038052;28;20029;-81
2023/08/05 04:52:32;;;;;;;15.02;12.50;;;;;;;12.95;100.00;101393.41;5032739;28;20084;-81
2023/08/05 04:55:06;;;;;;;15.25;11.77;;;;;;;12.95;100.00;101393.41;5044173;28;20087;-81
2023/08/05 04:57:32;;;;;;;15.00;12.52;;;;;;;12.97;100.00;101391.50;5029117;28;20446;-81
2023/08/05 04:59:57;;;;;;;17.27;12.38;;;;;;;12.95;100.00;101396.06;5028921;28;20290;-82
2023/08/05 05:02:22;;;;;;;15.82;12.57;;;;;;;13.02;100.00;101397.28;5029401;28;20029;-81
2023/08/05 05:04:47;;;;;;;16.42;11.80;;;;;;;13.01;100.00;101392.94;5029507;28;20029;-81
2023/08/05 05:07:13;;;;;;;15.25;12.02;;;;;;;13.04;100.00;101398.00;5028861;28;20032;-81
2023/08/05 05:09:38;;;;;;;12.57;11.50;;;;;;;13.00;100.00;101393.91;5023025;28;20077;-80
2023/08/05 05:12:04;;;;;;;12.85;11.15;;;;;;;13.08;100.00;101394.16;5028812;28;20029;-81
2023/08/05 05:14:33;;;;;;;13.18;11.73;;;;;;;13.12;100.00;101392.97;5036548;28;20029;-81
2023/08/05 05:16:58;;;;;;;16.73;12.77;;;;;;;13.04;100.00;101391.88;5049462;28;20021;-81
2023/08/05 05:19:23;;;;;;;14.57;12.20;;;;;;;13.06;100.00;101385.50;5049705;28;20070;-81
2023/08/05 05:21:49;;;;;;;13.68;12.38;;;;;;;13.08;100.00;101382.75;5049167;28;20059;-80
2023/08/05 05:24:14;;;;;;;14.73;11.88;;;;;;;13.10;100.00;101389.59;5049619;28;20111;-80
2023/08/05 05:26:40;;;;;;;15.95;12.13;;;;;;;13.09;100.00;101385.28;5047290;28;20108;-81
2023/08/05 05:29:05;;;;;;;16.25;12.82;;;;;;;13.14;100.00;101383.13;5027911;28;20029;-81
2023/08/05 05:31:30;;;;;;;13.88;12.10;;;;;;;13.16;100.00;101386.50;5029715;28;20030;-81
2023/08/05 05:33:56;;;;;;;14.65;13.13;;;;;;;13.26;100.00;101380.56;5049852;28;20104;-81
2023/08/05 05:36:21;;;;;;;14.15;12.73;;;;;;;13.31;100.00;101384.53;5039007;28;20075;-81
2023/08/05 05:38:47;;;;;;;14.55;13.05;;;;;;;13.36;100.00;101373.59;5030253;28;20500;-81
2023/08/05 05:41:12;;;;;;;14.77;13.18;;;;;;;13.41;100.00;101377.56;5038824;28;20848;-81
2023/08/05 05:43:38;;;;;;;14.10;12.70;;;;;;;13.50;100.00;101373.34;5025582;28;20056;-81
2023/08/05 05:46:04;;;;;;;14.00;12.60;;;;;;;13.57;100.00;101366.63;5038611;28;20045;-81
2023/08/05 05:48:29;;;;;;;15.80;13.15;;;;;;;13.59;100.00;101369.16;5029544;28;20095;-81
2023/08/05 05:50:55;;;;;;;15.90;13.73;;;;;;;13.61;100.00;101364.59;5037023;28;20033;-81
2023/08/05 05:53:21;;;;;;;16.30;13.73;;;;;;;13.71;100.00;101376.13;5047654;28;20040;-81
2023/08/05 05:55:50;;;;;;;14.90;12.82;;;;;;;13.76;100.00;101377.47;5046832;28;20034;-81
2023/08/05 05:58:15;;;;;;;14.88;13.00;;;;;;;13.86;100.00;101372.28;5036437;28;20075;-81
2023/08/05 06:00:41;;;;;;;16.88;13.18;;;;;;;13.92;100.00;101366.50;5022682;28;20025;-81
2023/08/05 06:03:06;;;;;;;14.90;13.35;;;;;;;13.95;100.00;101366.25;5028518;28;20053;-81
2023/08/05 06:05:32;;;;;;;16.30;13.15;;;;;;;14.02;100.00;101369.28;5032794;28;20038;-81
2023/08/05 06:07:57;;;;;;;13.75;12.40;;;;;;;14.05;100.00;101363.72;5028807;28;20033;-81
2023/08/05 06:10:23;;;;;;;13.82;12.15;;;;;;;14.08;100.00;101358.19;5028480;28;20389;-82
2023/08/05 06:12:48;;;;;;;15.52;12.20;;;;;;;14.18;100.00;101351.19;5028235;28;20461;-82
2023/08/05 06:15:13;;;;;;;13.13;11.88;;;;;;;14.23;100.00;101348.16;5026487;28;20192;-81
2023/08/05 06:17:39;;;;;;;13.70;11.70;;;;;;;14.29;100.00;101353.78;5044108;28;20079;-81
2023/08/05 06:20:06;;;;;;;13.43;11.35;;;;;;;14.33;100.00;101355.22;5028948;28;20032;-82
2023/08/05 06:22:31;;;;;;;15.15;11.65;;;;;;;14.36;100.00;101357.63;5035453;28;20571;-82
2023/08/05 06:24:57;;;;;;;14.73;11.57;;;;;;;14.46;100.00;101348.97;5031652;28;20255;-82
2023/08/05 06:27:22;;;;;;;12.02;10.85;;;;;;;14.53;100.00;101345.69;5049600;28;20017;-82
2023/08/05 06:29:48;;;;;;;12.60;10.43;;;;;;;14.62;100.00;101338.78;5046595;28;20049;-82
2023/08/05 06:32:13;;;;;;;14.02;10.70;;;;;;;14.69;100.00;101350.53;5051940;28;20021;-80
2023/08/05 06:34:38;;;;;;;12.30;10.25;;;;;;;14.73;100.00;101336.06;5033910;28;20022;-80
2023/08/05 06:37:04;;;;;;;14.30;10.70;;;;;;;14.81;100.00;101343.38;5046308;28;20456;-80
2023/08/05 06:39:32;;;;;;;14.70;11.15;;;;;;;14.84;100.00;101343.97;5052058;28;20025;-80
2023/08/05 06:41:58;;;;;;;12.00;10.13;;;;;;;14.93;100.00;101342.38;5048192;28;20113;-80
2023/08/05 06:44:23;;;;;;;12.30;10.25;;;;;;;15.00;100.00;101330.28;5050420;28;20401;-80
2023/08/05 06:46:48;;;;;;;12.57;9.90;;;;;;;15.04;100.00;101327.22;5033514;28;20091;-81
2023/08/05 06:49:14;;;;;;;12.52;10.07;;;;;;;15.14;100.00;101339.69;5033250;28;20028;-81
2023/08/05 06:51:39;;;;;;;11.13;9.90;;;;;;;15.23;100.00;101338.94;5040941;28;20033;-80
2023/08/05 06:54:05;;;;;;;11.63;10.07;;;;;;;15.28;100.00;101332.25;5051223;28;20025;-81
2023/08/05 06:56:30;;;;;;;13.15;10.98;;;;;;;15.39;100.00;101328.66;5051973;28;20105;-82
2023/08/05 06:58:55;;;;;;;12.73;10.73;;;;;;;15.48;100.00;101327.88;5048791;28;20017;-81
2023/08/05 07:01:21;;;;;;;12.23;11.00;;;;;;;15.54;100.00;101327.31;5033307;28;20061;-80
2023/08/05 07:03:48;;;;;;;11.98;10.63;;;;;;;15.65;100.00;101323.78;5029835;28;20565;-81
2023/08/05 07:06:13;;;;;;;12.10;10.48;;;;;;;15.72;100.00;101313.47;5021940;28;20029;-81
2023/08/05 07:08:38;;;;;;;13.30;9.50;;;;;;;15.88;100.00;101319.09;5024468;28;20026;-81
2023/08/05 07:11:04;;;;;;;12.38;9.57;;;;;;;16.02;100.00;101308.09;5030199;28;20551;-81
2023/08/05 07:13:29;;;;;;;10.52;9.20;;;;;;;16.14;100.00;101314.97;5030652;28;20102;-80
2023/08/05 07:16:02;;;;;;;9.05;8.25;;;;;;;16.19;100.00;101315.38;5031119;28;20048;-80
2023/08/05 07:18:28;;;;;;;9.05;8.15;;;;;;;16.26;100.00;101313.84;5031083;28;20622;-80
2023/08/05 07:20:54;;;;;;;11.90;8.20;;;;;;;16.39;100.00;101318.03;5029908;28;20060;-80
2023/08/05 07:23:20;;;;;;;10.77;8.55;;;;;;;16.49;100.00;101308.28;5026506;28;20049;-81
2023/08/05 07:25:45;;;;;;;11.32;7.88;;;;;;;16.67;100.00;101303.94;5029024;28;20025;-80
2023/08/05 07:28:10;;;;;;;11.63;8.23;;;;;;;16.75;100.00;101309.38;5034619;28;20529;-80
2023/08/05 07:30:36;;;;;;;9.02;8.15;;;;;;;16.86;100.00;101316.38;5051919;28;20029;-82
2023/08/05 07:33:04;;;;;;;9.55;7.53;;;;;;;16.97;100.00;101313.56;5051132;28;20027;-82
2023/08/05 07:35:30;;;;;;;11.02;8.85;;;;;;;17.11;98.99;101310.44;5050819;28;20025;-82
2023/08/05 07:37:55;;;;;;;10.32;8.00;;;;;;;17.09;98.93;101306.25;5051205;28;20032;-82
2023/08/05 07:40:22;;;;;;;10.55;7.90;;;;;;;17.20;98.23;101303.41;5051175;28;20053;-81
2023/08/05 07:42:49;;;;;;;10.68;7.68;;;;;;;17.31;97.25;101310.38;5030025;28;20026;-80
2023/08/05 07:45:17;;;;;;;9.75;7.75;;;;;;;17.44;96.18;101303.75;5030782;28;20054;-81
2023/08/05 07:47:44;;;;;;;8.73;7.78;;;;;;;17.58;95.67;101294.41;5031108;28;20112;-80
2023/08/05 07:50:10;;;;;;;8.30;7.40;;;;;;;17.57;95.36;101289.25;5030643;28;20056;-81
2023/08/05 07:52:36;;;;;;;9.43;8.32;;;;;;;17.60;94.14;101283.63;5031838;28;20017;-82
2023/08/05 07:55:03;;;;;;;9.18;8.18;;;;;;;17.58;95.43;101288.25;5045579;28;20033;-80
2023/08/05 07:57:28;;;;;;;8.55;7.30;;;;;;;17.72;95.32;101282.50;5046023;28;20013;-80
2023/08/05 07:59:55;;;;;;;7.97;7.15;;;;;;;18.03;93.95;101275.84;5026786;28;20071;-80
2023/08/05 08:02:20;;;;;;;7.75;6.82;;;;;;;18.46;90.55;101263.59;5031098;28;20095;-80
2023/08/05 08:04:48;;;;;;;7.07;6.38;;;;;;;18.72;86.96;101256.47;5030311;28;20029;-81
2023/08/05 08:07:14;;;;;;;6.72;5.90;;;;;;;18.73;88.26;101247.47;5030721;28;20031;-81
2023/08/05 08:09:39;;;;;;;11.27;5.50;;;;;;;18.74;85.36;101246.47;5029457;28;20108;-81
2023/08/05 08:12:05;;;;;;;7.60;5.38;;;;;;;18.67;85.50;101249.94;5030021;28;20055;-81
2023/08/05 08:14:30;;;;;;;5.75;5.00;;;;;;;18.50;87.28;101248.94;5023141;28;20041;-81
2023/08/05 08:16:56;;;;;;;5.40;4.65;;;;;;;18.52;87.53;101244.31;5021384;28;20021;-81
2023/08/05 08:19:22;;;;;;;7.57;4.85;;;;;;;18.47;86.72;101241.28;5030222;28;20525;-81
2023/08/05 08:21:48;;;;;;;4.43;3.88;;;;;;;18.45;84.62;101243.25;5030316;28;20167;-79
2023/08/05 08:24:13;;;;;;;4.75;3.83;;;;;;;18.42;86.58;101241.75;5029396;28;20514;-82
2023/08/05 08:26:39;;;;;;;7.50;3.92;;;;;;;18.47;87.04;101235.94;5030277;28;20029;-81
2023/08/05 08:29:04;;;;;;;5.70;3.75;;;;;;;18.51;85.88;101241.78;5042960;28;20060;-80
2023/08/05 08:31:30;;;;;;;3.92;3.28;;;;;;;18.46;86.09;101239.59;5049459;28;20021;-80
2023/08/05 08:33:56;;;;;;;4.78;3.42;;;;;;;18.63;86.75;101230.75;5027936;28;20091;-81
2023/08/05 08:36:22;;;;;;;3.90;3.13;;;;;;;19.28;83.81;101231.13;5028553;28;20032;-78
2023/08/05 08:38:47;;;;;;;4.93;3.35;;;;;;;19.58;81.33;101220.88;5029280;28;20519;-79
2023/08/05 08:41:13;;;;;;;7.68;3.22;;;;;;;19.63;79.40;101207.91;5029542;28;20025;-80
2023/08/05 08:43:40;;;;;;;6.75;3.00;;;;;;;19.89;78.10;101208.59;5030576;28;20044;-79
2023/08/05 08:46:07;;;;;;;2.85;2.42;;;;;;;20.15;76.63;101207.63;5028569;28;20049;-81
2023/08/05 08:48:35;;;;;;;5.15;2.75;;;;;;;20.39;75.08;101199.59;5028521;28;20095;-81
2023/08/05 08:51:01;;;;;;;4.90;2.45;;;;;;;20.54;74.90;101197.94;5023564;28;20082;-79
2023/08/05 08:53:27;;;;;;;5.13;2.92;;;;;;;20.44;71.89;101196.47;5031288;28;20560;-79
2023/08/05 08:55:52;;;;;;;5.28;2.83;;;;;;;20.49;73.41;101194.94;5049791;28;20024;-80
2023/08/05 08:58:18;;;;;;;5.55;2.75;;;;;;;20.28;73.09;101186.56;5049891;28;20092;-79
2023/08/05 09:00:44;;;;;;;5.00;3.00;;;;;;;20.22;73.33;101188.09;5049383;28;20025;-79
2023/08/05 09:03:11;;;;;;;5.97;3.65;;;;;;;20.02;73.80;101181.44;5049828;28;20024;-79
2023/08/05 09:05:42;;;;;;;3.17;2.88;;;;;;;20.04;74.59;101182.09;5049215;28;20098;-80
2023/08/05 09:08:10;;;;;;;5.32;3.00;;;;;;;20.15;75.20;101175.56;5026218;28;20033;-76
2023/08/05 09:10:39;;;;;;;5.60;3.17;;;;;;;20.03;74.25;101165.22;5030463;28;20544;-77
2023/08/05 09:13:06;;;;;;;4.05;2.60;;;;;;;20.14;75.50;101168.56;5029507;28;20029;-77
2023/08/05 09:15:33;;;;;;;4.25;2.65;;;;;;;19.92;77.32;101162.88;5030070;28;20036;-75
2023/08/05 09:17:59;;;;;;;3.90;3.17;;;;;;;19.71;76.84;101149.19;5029703;28;20025;-76
2023/08/05 09:20:24;;;;;;;5.05;2.97;;;;;;;19.51;78.17;101153.09;5028625;28;20040;-76
2023/08/05 09:22:57;;;;;;;4.90;2.50;;;;;;;19.73;79.20;101149.84;5029222;28;20021;-76
2023/08/05 09:25:23;;;;;;;4.47;3.13;;;;;;;19.70;76.88;101150.19;5022679;28;20083;-75
2023/08/05 09:27:53;;;;;;;6.10;3.42;;;;;;;19.57;77.44;101136.47;5031187;28;20175;-76
2023/08/05 09:30:21;;;;;;;3.95;3.40;;;;;;;19.51;77.85;101145.09;5049257;28;20029;-79
2023/08/05 09:32:47;;;;;;;4.60;3.13;;;;;;;19.57;77.74;101136.47;5049001;28;20044;-79
2023/08/05 09:35:13;;;;;;;6.38;3.67;;;;;;;19.60;77.28;101130.78;5048600;28;20021;-79
2023/08/05 09:37:39;;;;;;;4.32;3.55;;;;;;;19.56;77.63;101116.09;5049302;28;20179;-79
2023/08/05 09:40:24;;;;;;;6.15;3.80;;;;;;;19.55;77.12;101130.44;5049129;28;20107;-79
2023/08/05 09:42:51;;;;;;;5.43;3.33;;;;;;;19.51;78.30;101127.25;5028484;28;20025;-79
2023/08/05 09:45:18;;;;;;;5.65;3.50;;;;;;;19.52;77.64;101128.91;5028643;28;20049;-78
2023/08/05 09:47:47;;;;;;;5.32;3.55;;;;;;;19.46;78.36;101120.75;5028902;28;20032;-79
2023/08/05 09:50:14;;;;;;;4.70;2.92;;;;;;;19.30;79.73;101122.38;5028292;28;20057;-78
2023/08/05 09:52:40;;;;;;;4.32;3.15;;;;;;;19.29;79.75;101110.03;5028223;28;20362;-79
2023/08/05 09:55:07;;;;;;;5.57;3.00;;;;;;;19.24;80.53;101107.03;5043667;28;20040;-78
2023/08/05 09:57:33;;;;;;;5.45;3.08;;;;;;;19.23;80.46;101105.38;5050917;28;20025;-80
2023/08/05 09:59:59;;;;;;;5.15;3.30;;;;;;;19.13;79.54;101110.00;5029959;28;20025;-78
2023/08/05 10:02:26;;;;;;;5.97;3.10;;;;;;;19.01;79.85;101104.13;5028973;28;20187;-79
2023/08/05 10:04:53;;;;;;;3.95;3.33;;;;;;;18.88;80.27;101094.94;5032153;28;20548;-77
2023/08/05 10:07:27;;;;;;;6.55;3.70;;;;;;;18.88;80.90;101095.75;5032710;28;20028;-79
2023/08/05 10:09:53;;;;;;;6.57;3.40;;;;;;;18.83;82.33;101094.56;5032747;28;20021;-78
2023/08/05 10:12:22;;;;;;;5.03;3.25;;;;;;;18.78;82.38;101090.53;5032867;28;20083;-78
2023/08/05 10:14:49;;;;;;;6.45;3.53;;;;;;;18.73;83.63;101092.84;5033110;28;20552;-77
2023/08/05 10:17:16;;;;;;;5.10;4.07;;;;;;;18.58;83.76;101094.44;5023401;28;20029;-80
2023/08/05 10:19:47;;;;;;;6.30;4.15;;;;;;;18.50;84.43;101090.91;5031024;28;20025;-77
2023/08/05 10:22:12;;;;;;;6.50;4.47;;;;;;;18.53;84.47;101088.75;5032820;28;20028;-79
2023/08/05 10:24:54;;;;;;;5.38;4.20;;;;;;;18.52;84.06;101089.72;5032451;28;20477;-79
2023/08/05 10:27:36;;;;;;;7.97;4.47;;;;;;;18.58;83.15;101088.25;5032281;28;20032;-79
2023/08/05 10:30:19;;;;;;;8.55;5.05;;;;;;;18.52;83.22;101087.06;5012348;28;20022;-79
2023/08/05 10:33:04;;;;;;;5.65;5.13;;;;;;;18.57;83.73;101092.75;5012451;28;20029;-78
2023/08/05 10:35:45;;;;;;;9.25;5.32;;;;;;;18.46;82.33;101085.03;5014338;28;20030;-78
2023/08/05 10:38:19;;;;;;;5.72;5.03;;;;;;;18.48;82.85;101077.72;5031348;28;20480;-78
2023/08/05 10:40:49;;;;;;;6.13;4.95;;;;;;;18.53;83.15;101075.41;5032068;28;20405;-79
2023/08/05 10:43:25;;;;;;;5.68;5.07;;;;;;;18.57;83.54;101065.28;5031953;28;20021;-79
2023/08/05 10:45:50;;;;;;;5.35;4.22;;;;;;;18.61;82.49;101063.94;5030966;28;20057;-78
2023/08/05 10:48:17;;;;;;;6.32;4.55;;;;;;;18.63;82.33;101065.50;5031480;28;20056;-79
2023/08/05 10:50:42;;;;;;;7.63;4.93;;;;;;;18.71;81.42;101060.19;5031676;28;20025;-79
2023/08/05 10:53:10;;;;;;;6.38;4.97;;;;;;;18.74;81.73;101062.53;5024477;28;20033;-79
2023/08/05 10:55:56;;;;;;;6.50;4.40;;;;;;;18.94;81.66;101065.78;5051402;28;20108;-79
2023/08/05 10:58:24;;;;;;;6.68;4.80;;;;;;;18.90;79.68;101060.94;5050985;28;20024;-79
2023/08/05 11:00:57;;;;;;;6.95;4.38;;;;;;;18.83;79.89;101063.41;5051983;28;20036;-79
2023/08/05 11:03:32;;;;;;;7.53;3.92;;;;;;;18.79;80.37;101054.88;5051857;28;20064;-79
2023/08/05 11:06:03;;;;;;;6.57;3.65;;;;;;;18.67;79.41;101058.84;5051382;28;20575;-78
2023/08/05 11:08:30;;;;;;;8.77;4.15;;;;;;;18.68;79.23;101057.84;5050961;28;20032;-79